Flick Point, California
Current Conditions -  °F | °C
As of 5:35 PM on Friday 21 Nov 2014 (Local Time) from KTRK Reporting Station
Overcast Overcast  
Wind Chill: 35°   Ceiling: 2700
Heat Index: 39°   Visibility: 10mi
Dew Point: 32°   Wind: 6mph
Humidity: 75%   Direction: 300°WNW
Pressure: 30.1"   Gusts: NA
Location:  39.2392°N, 120.102°W
Report Text: KTRK 220135Z AUTO 30005KT 10SM OVC027 04/00 A3010 RMK AO2
Loading
Personal Weather Stations






























Interactive Weather Map New forecast layout! Learn more

10-Day Weather Forecast

Advertisements
Track Severe Weather on mobile